createdAt,value
2022-09-01T00:00:26.935Z,9.62
2022-09-01T00:01:26.880Z,10.59
2022-09-01T00:02:26.924Z,12.52
2022-09-01T00:03:26.867Z,14.78
2022-09-01T00:04:27.006Z,12.84
2022-09-01T00:05:26.826Z,13.16
2022-09-01T00:06:26.830Z,12.20
2022-09-01T00:07:26.814Z,12.20
2022-09-01T00:08:26.798Z,12.52
2022-09-01T00:09:26.788Z,12.20
2022-09-01T00:10:26.839Z,12.52
2022-09-01T00:11:26.749Z,12.84
2022-09-01T00:12:26.783Z,12.84
2022-09-01T00:13:26.729Z,12.52
2022-09-01T00:14:29.824Z,14.13
2022-09-01T00:15:26.733Z,12.84
2022-09-01T00:16:26.701Z,14.78
2022-09-01T00:17:26.671Z,12.20
2022-09-01T00:18:26.660Z,11.55
2022-09-01T00:19:26.650Z,12.52
2022-09-01T00:20:26.651Z,12.20
2022-09-01T00:21:26.621Z,11.87
2022-09-01T00:22:26.611Z,9.30
2022-09-01T00:23:26.600Z,11.87
2022-09-01T00:24:26.599Z,12.52
2022-09-01T00:25:26.573Z,11.23
2022-09-01T00:26:26.555Z,12.52
2022-09-01T00:27:30.608Z,9.30
2022-09-01T00:28:28.753Z,11.23
2022-09-01T00:29:26.564Z,12.20
2022-09-01T00:30:26.512Z,11.87
2022-09-01T00:31:26.539Z,12.20
2022-09-01T00:32:26.484Z,13.49
2022-09-01T00:33:26.464Z,13.81
2022-09-01T00:34:26.466Z,11.87
2022-09-01T00:35:27.395Z,11.55
2022-09-01T00:36:26.425Z,12.20
2022-09-01T00:37:26.406Z,12.20
2022-09-01T00:38:26.407Z,14.78
2022-09-01T00:39:26.396Z,11.87
2022-09-01T00:40:26.394Z,9.62
2022-09-01T00:41:26.357Z,12.20
2022-09-01T00:42:26.358Z,12.52
2022-09-01T00:43:26.327Z,12.20
2022-09-01T00:44:26.339Z,11.87
2022-09-01T00:45:26.326Z,12.20
2022-09-01T00:46:29.048Z,11.55
2022-09-01T00:47:26.278Z,11.55
2022-09-01T00:48:26.278Z,11.87
2022-09-01T00:49:26.272Z,11.23
2022-09-01T00:50:26.249Z,14.45
2022-09-01T00:51:26.230Z,11.87
2022-09-01T00:52:26.210Z,10.59
2022-09-01T00:53:26.200Z,11.23
2022-09-01T00:54:26.257Z,11.55
2022-09-01T00:55:26.181Z,11.23
2022-09-01T00:56:26.158Z,11.87
2022-09-01T00:57:26.142Z,14.78
2022-09-01T00:58:26.132Z,8.33
2022-09-01T00:59:26.127Z,8.01
2022-09-01T01:00:26.113Z,11.87
2022-09-01T01:01:26.108Z,12.20
2022-09-01T01:02:26.108Z,8.97
2022-09-01T01:03:26.063Z,12.84
2022-09-01T01:04:27.023Z,9.62
2022-09-01T01:05:26.264Z,9.94
2022-09-01T01:06:26.024Z,11.87
2022-09-01T01:07:26.014Z,14.45
2022-09-01T01:08:26.006Z,11.55
2022-09-01T01:09:26.024Z,11.55
2022-09-01T01:10:25.992Z,11.55
2022-09-01T01:11:26.916Z,11.87
2022-09-01T01:12:25.942Z,9.62
2022-09-01T01:13:25.938Z,11.55
2022-09-01T01:14:25.932Z,11.87
2022-09-01T01:15:25.902Z,9.94
2022-09-01T01:16:25.942Z,11.23
2022-09-01T01:17:26.148Z,11.87
2022-09-01T01:18:26.159Z,8.97
2022-09-01T01:19:25.867Z,9.62
2022-09-01T01:20:25.838Z,14.13
2022-09-01T01:21:25.843Z,9.30
2022-09-01T01:22:25.818Z,11.87
2022-09-01T01:23:25.799Z,11.55
2022-09-01T01:24:25.803Z,11.23
2022-09-01T01:25:25.769Z,11.55
2022-09-01T01:26:25.770Z,10.59
2022-09-01T01:27:25.746Z,11.23
2022-09-01T01:28:25.741Z,11.87
2022-09-01T01:29:25.732Z,11.87
2022-09-01T01:30:25.706Z,11.87
2022-09-01T01:31:25.988Z,12.20
2022-09-01T01:32:25.722Z,10.59
2022-09-01T01:33:25.718Z,11.87
2022-09-01T01:34:25.675Z,12.20
2022-09-01T01:35:25.640Z,11.87
2022-09-01T01:37:39.743Z,13.81
2022-09-01T01:38:34.841Z,8.65
2022-09-01T01:39:34.831Z,9.62
2022-09-01T01:40:34.865Z,11.87
2022-09-01T01:41:34.802Z,14.13
2022-09-01T01:42:34.773Z,10.26
2022-09-01T01:43:34.756Z,12.20
2022-09-01T01:44:34.755Z,12.52
2022-09-01T01:45:34.757Z,9.62
2022-09-01T01:46:34.723Z,12.20
2022-09-01T01:47:34.713Z,12.84
2022-09-01T01:48:34.786Z,9.94
2022-09-01T01:49:34.695Z,14.45
2022-09-01T01:50:34.675Z,10.26
2022-09-01T01:51:34.655Z,11.55
2022-09-01T01:52:34.645Z,14.45
2022-09-01T01:53:34.627Z,11.87
2022-09-01T01:54:34.636Z,9.94
2022-09-01T01:55:34.608Z,11.87
2022-09-01T01:56:34.598Z,14.45
2022-09-01T01:57:34.577Z,12.20
2022-09-01T01:58:34.577Z,14.13
2022-09-01T01:59:34.567Z,12.20
2022-09-01T02:00:34.550Z,11.87
2022-09-01T02:01:34.619Z,10.26
2022-09-01T02:02:34.606Z,12.20
2022-09-01T02:03:34.572Z,9.94
2022-09-01T02:04:34.541Z,12.52
2022-09-01T02:05:34.470Z,9.62
2022-09-01T02:06:34.502Z,12.20
2022-09-01T02:07:34.452Z,12.84
2022-09-01T02:08:35.398Z,14.45
2022-09-01T02:09:34.450Z,12.20
2022-09-01T02:10:34.411Z,12.20
2022-09-01T02:11:34.417Z,10.91
2022-09-01T02:12:34.411Z,12.52
2022-09-01T02:13:34.384Z,10.59
2022-09-01T02:14:34.363Z,14.13
2022-09-01T02:15:34.347Z,15.10
2022-09-01T02:16:34.406Z,11.87
2022-09-01T02:17:34.543Z,12.20
2022-09-01T02:18:34.334Z,11.23
2022-09-01T02:19:34.297Z,13.81
2022-09-01T02:20:34.292Z,11.87
2022-09-01T02:21:34.523Z,8.97
2022-09-01T02:22:34.254Z,11.55
2022-09-01T02:23:34.234Z,11.55
2022-09-01T02:24:34.265Z,7.36
2022-09-01T02:25:34.204Z,11.87
2022-09-01T02:26:34.204Z,9.62
2022-09-01T02:27:34.185Z,11.55
2022-09-01T02:28:34.195Z,11.55
2022-09-01T02:29:40.194Z,14.45
2022-09-01T02:30:35.199Z,14.78
2022-09-01T02:31:34.126Z,11.23
2022-09-01T02:32:34.124Z,11.55
2022-09-01T02:33:34.106Z,12.84
2022-09-01T02:34:34.096Z,9.30
2022-09-01T02:35:34.081Z,12.84
2022-09-01T02:36:34.058Z,13.81
2022-09-01T02:37:34.057Z,12.20
2022-09-01T02:38:34.045Z,9.94
2022-09-01T02:39:34.039Z,10.26
2022-09-01T02:40:34.069Z,11.87
2022-09-01T02:41:34.001Z,11.55
2022-09-01T02:42:33.991Z,13.16
2022-09-01T02:43:33.998Z,11.23
2022-09-01T02:44:36.238Z,12.20
2022-09-01T02:45:33.974Z,11.87
2022-09-01T02:46:33.949Z,11.23
2022-09-01T02:47:33.920Z,14.13
2022-09-01T02:48:33.901Z,13.81
2022-09-01T02:49:33.907Z,12.20
2022-09-01T02:50:33.881Z,13.49
2022-09-01T02:51:34.824Z,12.20
2022-09-01T02:52:33.860Z,11.23
2022-09-01T02:53:33.842Z,12.52
2022-09-01T02:54:34.071Z,11.55
2022-09-01T02:55:33.816Z,4.46
2022-09-01T02:56:33.812Z,11.87
2022-09-01T02:57:33.795Z,9.30
2022-09-01T02:58:33.776Z,14.78
2022-09-01T02:59:33.783Z,9.62
2022-09-01T03:00:33.753Z,12.52
2022-09-01T03:01:33.791Z,11.23
2022-09-01T03:02:33.726Z,14.13
2022-09-01T03:03:33.724Z,14.13
2022-09-01T03:04:33.981Z,12.20
2022-09-01T03:05:33.686Z,10.91
2022-09-01T03:06:33.677Z,11.87
2022-09-01T03:07:33.670Z,11.87
2022-09-01T03:08:33.658Z,13.49
2022-09-01T03:09:33.660Z,11.55
2022-09-01T03:10:33.629Z,13.81
2022-09-01T03:11:33.607Z,11.87
2022-09-01T03:12:33.606Z,8.97
2022-09-01T03:13:33.577Z,11.55
2022-09-01T03:14:33.577Z,11.55
2022-09-01T03:15:33.557Z,10.59
2022-09-01T03:16:33.661Z,11.55
2022-09-01T03:17:34.488Z,11.23
2022-09-01T03:18:33.528Z,9.62
2022-09-01T03:19:33.510Z,11.55
2022-09-01T03:20:33.501Z,10.59
2022-09-01T03:21:33.479Z,8.97
2022-09-01T03:22:33.459Z,8.33
2022-09-01T03:23:34.430Z,11.23
2022-09-01T03:24:33.440Z,9.30
2022-09-01T03:25:33.671Z,8.33
2022-09-01T03:26:33.409Z,13.81
2022-09-01T03:27:33.410Z,11.55
2022-09-01T03:28:33.403Z,9.94
2022-09-01T03:29:33.389Z,9.94
2022-09-01T03:30:33.358Z,12.52
2022-09-01T03:31:33.413Z,8.33
2022-09-01T03:32:33.330Z,8.33
2022-09-01T03:33:34.134Z,11.55
2022-09-01T03:34:33.313Z,11.23
2022-09-01T03:35:33.318Z,13.16
2022-09-01T03:36:33.284Z,10.59
2022-09-01T03:37:33.281Z,11.55
2022-09-01T03:38:33.253Z,14.78
2022-09-01T03:39:33.266Z,10.59
2022-09-01T03:40:33.295Z,11.87
2022-09-01T03:41:33.220Z,8.01
2022-09-01T03:42:33.225Z,7.04
2022-09-01T03:43:35.993Z,11.23
2022-09-01T03:44:33.183Z,10.59
2022-09-01T03:45:33.198Z,10.59
2022-09-01T03:46:36.665Z,11.55
2022-09-01T03:47:33.145Z,8.33
2022-09-01T03:48:33.126Z,8.65
2022-09-01T03:49:33.122Z,11.55
2022-09-01T03:50:33.096Z,6.40
2022-09-01T03:51:33.099Z,10.91
2022-09-01T03:52:33.067Z,8.97
2022-09-01T03:53:33.054Z,11.23
2022-09-01T03:54:33.057Z,11.23
2022-09-01T03:55:33.289Z,10.91
2022-09-01T03:56:33.018Z,12.84
2022-09-01T03:57:33.039Z,10.59
2022-09-01T03:58:32.988Z,11.23
2022-09-01T03:59:32.988Z,11.87
2022-09-01T04:00:32.966Z,12.52
2022-09-01T04:01:33.011Z,10.91
2022-09-01T04:02:32.966Z,7.04
2022-09-01T04:03:32.919Z,10.59
2022-09-01T04:04:32.919Z,12.20
2022-09-01T04:05:32.900Z,10.91
2022-09-01T04:06:32.891Z,8.65
2022-09-01T04:07:32.870Z,9.94
2022-09-01T04:08:33.207Z,10.59
2022-09-01T04:09:32.872Z,10.59
2022-09-01T04:10:32.841Z,10.26
2022-09-01T04:11:32.822Z,11.23
2022-09-01T04:12:32.822Z,9.30
2022-09-01T04:13:32.851Z,10.59
2022-09-01T04:14:32.783Z,11.87
2022-09-01T04:15:32.773Z,9.94
2022-09-01T04:16:32.936Z,13.16
2022-09-01T04:17:32.745Z,13.16
2022-09-01T04:18:32.733Z,13.49
2022-09-01T04:19:32.714Z,11.55
2022-09-01T04:20:32.703Z,13.49
2022-09-01T04:21:32.684Z,13.49
2022-09-01T04:22:32.675Z,13.49
2022-09-01T04:23:32.675Z,11.23
2022-09-01T04:24:32.646Z,8.01
2022-09-01T04:25:32.637Z,10.26
2022-09-01T04:26:32.635Z,13.81
2022-09-01T04:27:32.616Z,11.87
2022-09-01T04:28:32.636Z,10.91
2022-09-01T04:29:32.604Z,10.91
2022-09-01T04:30:32.574Z,11.23
2022-09-01T04:31:32.584Z,10.59
2022-09-01T04:32:32.538Z,10.59
2022-09-01T04:33:32.559Z,9.30
2022-09-01T04:34:32.508Z,9.94
2022-09-01T04:35:32.506Z,10.26
2022-09-01T04:36:33.488Z,10.26
2022-09-01T04:37:32.486Z,13.16
2022-09-01T04:38:32.475Z,10.59
2022-09-01T04:39:32.449Z,8.33
2022-09-01T04:40:32.458Z,10.59
2022-09-01T04:41:32.465Z,11.87
2022-09-01T04:42:32.524Z,6.72
2022-09-01T04:43:32.447Z,9.94
2022-09-01T04:44:32.385Z,12.20
2022-09-01T04:45:32.412Z,13.49
2022-09-01T04:46:32.359Z,10.26
2022-09-01T04:47:35.998Z,10.59
2022-09-01T04:48:32.349Z,12.52
2022-09-01T04:49:32.328Z,10.59
2022-09-01T04:50:32.322Z,10.59
2022-09-01T04:51:32.312Z,8.33
2022-09-01T04:52:32.304Z,10.91
2022-09-01T04:53:32.314Z,8.33
2022-09-01T04:54:32.282Z,10.59
2022-09-01T04:55:32.273Z,10.59
2022-09-01T04:56:32.263Z,8.01
2022-09-01T04:57:32.214Z,11.23
2022-09-01T04:58:32.215Z,10.59
2022-09-01T04:59:32.194Z,10.59
2022-09-01T05:00:32.317Z,11.23
2022-09-01T05:01:32.165Z,13.49
2022-09-01T05:02:32.202Z,8.01
2022-09-01T05:03:32.173Z,8.65
2022-09-01T05:04:32.125Z,10.59
2022-09-01T05:05:32.106Z,11.23
2022-09-01T05:06:32.093Z,9.94
2022-09-01T05:07:32.086Z,12.52
2022-09-01T05:08:32.663Z,10.26
2022-09-01T05:09:32.056Z,10.59
2022-09-01T05:10:32.036Z,13.81
2022-09-01T05:11:32.037Z,11.55
2022-09-01T05:12:32.018Z,11.23
2022-09-01T05:13:32.019Z,9.94
2022-09-01T05:14:31.995Z,11.23
2022-09-01T05:15:31.979Z,14.45
2022-09-01T05:16:31.997Z,11.23
2022-09-01T05:17:31.956Z,11.23
2022-09-01T05:18:31.948Z,10.91
2022-09-01T05:19:31.929Z,10.59
2022-09-01T05:20:31.909Z,10.91
2022-09-01T05:21:31.918Z,10.91
2022-09-01T05:22:31.879Z,13.81
2022-09-01T05:23:31.890Z,11.23
2022-09-01T05:24:31.861Z,11.87
2022-09-01T05:25:31.851Z,11.23
2022-09-01T05:26:31.851Z,13.81
2022-09-01T05:27:31.821Z,7.69
2022-09-01T05:28:31.811Z,14.13
2022-09-01T05:29:31.812Z,12.20
2022-09-01T05:30:31.814Z,11.55
2022-09-01T05:31:31.824Z,11.87
2022-09-01T05:32:31.762Z,9.30
2022-09-01T05:33:31.764Z,11.87
2022-09-01T05:34:31.722Z,12.20
2022-09-01T05:35:32.656Z,12.20
2022-09-01T05:36:32.653Z,8.97
2022-09-01T05:37:31.694Z,9.94
2022-09-01T05:38:32.634Z,14.45
2022-09-01T05:39:31.683Z,11.55
2022-09-01T05:40:31.685Z,12.52
2022-09-01T05:41:31.636Z,12.20
2022-09-01T05:42:31.624Z,13.81
2022-09-01T05:43:31.625Z,15.74
2022-09-01T05:44:31.596Z,11.23
2022-09-01T05:45:50.088Z,14.45
2022-09-01T05:46:32.638Z,12.52
2022-09-01T05:47:31.557Z,12.52
2022-09-01T05:48:31.565Z,12.20
2022-09-01T05:49:31.549Z,14.45
2022-09-01T05:50:31.517Z,11.87
2022-09-01T05:51:44.255Z,15.10
2022-09-01T05:52:32.497Z,12.52
2022-09-01T05:53:31.487Z,10.91
2022-09-01T05:54:31.466Z,13.81
2022-09-01T05:55:31.459Z,12.52
2022-09-01T05:56:31.449Z,12.20
2022-09-01T05:57:34.595Z,10.26
2022-09-01T05:59:22.598Z,14.78
2022-09-01T05:59:32.409Z,12.20
2022-09-01T06:00:31.400Z,13.81
2022-09-01T06:01:31.431Z,12.20
2022-09-01T06:02:31.429Z,14.45
2022-09-01T06:03:31.434Z,9.62
2022-09-01T06:04:32.332Z,10.59
2022-09-01T06:05:31.331Z,12.84
2022-09-01T06:06:43.751Z,9.94
2022-09-01T06:07:32.302Z,11.87
2022-09-01T06:08:31.304Z,11.87
2022-09-01T06:09:31.271Z,13.16
2022-09-01T06:10:31.260Z,12.52
2022-09-01T06:11:31.249Z,9.62
2022-09-01T06:12:31.226Z,11.23
2022-09-01T06:13:31.244Z,12.84
2022-09-01T06:14:31.207Z,14.78
2022-09-01T06:15:31.196Z,11.23
2022-09-01T06:16:31.245Z,13.81
2022-09-01T06:17:36.056Z,12.84
2022-09-01T06:18:32.166Z,12.20
2022-09-01T06:19:36.744Z,12.84
2022-09-01T06:20:32.144Z,12.52
2022-09-01T06:21:31.116Z,13.16
2022-09-01T06:22:31.115Z,13.16
2022-09-01T06:23:31.088Z,12.52
2022-09-01T06:24:31.066Z,15.42
2022-09-01T06:25:31.057Z,10.26
2022-09-01T06:26:31.047Z,15.42
2022-09-01T06:27:31.049Z,11.55
2022-09-01T06:28:31.980Z,13.16
2022-09-01T06:29:31.007Z,12.84
2022-09-01T06:30:30.997Z,8.65
2022-09-01T06:31:31.027Z,13.49
2022-09-01T06:32:30.979Z,12.84
2022-09-01T06:33:30.964Z,11.23
2022-09-01T06:34:31.898Z,10.59
2022-09-01T06:35:30.947Z,13.49
2022-09-01T06:36:34.849Z,12.52
2022-09-01T06:37:30.929Z,13.81
2022-09-01T06:38:30.890Z,15.10
2022-09-01T06:39:30.892Z,13.49
2022-09-01T06:40:30.920Z,12.20
2022-09-01T06:41:31.803Z,10.26
2022-09-01T06:42:30.851Z,12.84
2022-09-01T06:43:30.834Z,12.52
2022-09-01T06:44:30.811Z,12.84
2022-09-01T06:45:30.814Z,13.49
2022-09-01T06:46:30.854Z,13.81
2022-09-01T06:47:30.832Z,11.23
2022-09-01T06:48:30.762Z,13.49
2022-09-01T06:49:30.762Z,11.87
2022-09-01T06:51:31.723Z,13.49
2022-09-01T06:53:32.021Z,13.49
2022-09-01T06:53:32.396Z,11.87
2022-09-01T06:54:30.710Z,15.42
2022-09-01T06:55:30.675Z,13.81
2022-09-01T06:58:31.637Z,13.49
2022-09-01T06:59:34.553Z,13.81
2022-09-01T07:00:30.614Z,13.81
2022-09-01T07:01:30.770Z,13.16
2022-09-01T07:02:30.633Z,13.16
2022-09-01T07:03:30.627Z,15.10
2022-09-01T07:04:30.558Z,14.13
2022-09-01T07:08:31.548Z,13.81
2022-09-01T07:09:47.308Z,11.87
2022-09-01T07:10:31.505Z,14.13
2022-09-01T07:12:31.503Z,14.13
2022-09-01T07:13:30.526Z,14.13
2022-09-01T07:14:30.430Z,12.84
2022-09-01T07:16:33.391Z,13.49
2022-09-01T07:17:30.387Z,13.16
2022-09-01T07:18:30.376Z,13.81
2022-09-01T07:20:31.354Z,11.55
2022-09-01T07:23:03.212Z,13.49
2022-09-01T07:23:46.245Z,14.45
2022-09-01T07:24:31.986Z,13.81
2022-09-01T07:25:37.648Z,12.84
2022-09-01T07:26:31.388Z,14.45
2022-09-01T07:27:35.912Z,14.13
2022-09-01T07:28:38.351Z,14.13
2022-09-01T07:29:31.233Z,11.23
2022-09-01T07:30:30.225Z,13.49
2022-09-01T07:32:47.455Z,13.81
2022-09-01T07:33:51.666Z,12.52
2022-09-01T07:34:38.993Z,14.45
2022-09-01T07:35:31.148Z,13.81
2022-09-01T07:36:30.383Z,16.39
2022-09-01T07:42:57.859Z,13.49
2022-09-01T07:43:33.347Z,13.49
2022-09-01T07:44:30.046Z,16.06
2022-09-01T07:45:30.034Z,14.45
2022-09-01T07:46:37.673Z,16.39
2022-09-01T07:49:02.476Z,14.45
2022-09-01T07:49:36.667Z,14.45
2022-09-01T07:51:07.460Z,13.81
2022-09-01T07:51:38.438Z,14.13
2022-09-01T07:52:30.962Z,14.45
2022-09-01T07:53:29.923Z,13.16
2022-09-01T07:54:29.915Z,12.52
2022-09-01T07:55:29.892Z,14.78
2022-09-01T07:56:29.879Z,16.71
2022-09-01T07:57:29.879Z,14.78
2022-09-01T07:58:29.854Z,15.42
2022-09-01T07:59:29.835Z,15.42
2022-09-01T08:00:31.666Z,12.52
2022-09-01T08:01:29.867Z,14.13
2022-09-01T08:02:29.874Z,14.78
2022-09-01T08:03:29.785Z,13.81
2022-09-01T08:04:29.785Z,13.81
2022-09-01T08:05:29.766Z,15.10
2022-09-01T08:06:37.959Z,14.13
2022-09-01T08:07:30.766Z,14.45
2022-09-01T08:08:29.787Z,15.10
2022-09-01T08:09:37.439Z,15.10
2022-09-01T08:10:31.667Z,17.68
2022-09-01T08:12:30.707Z,14.45
2022-09-01T08:13:29.663Z,17.03
2022-09-01T08:14:33.808Z,13.16
2022-09-01T08:16:39.424Z,14.45
2022-09-01T08:17:50.243Z,14.78
2022-09-01T08:18:48.156Z,14.78
2022-09-01T08:19:30.570Z,14.78
2022-09-01T08:20:29.567Z,17.03
2022-09-01T08:21:29.582Z,17.35
2022-09-01T08:22:29.581Z,15.10
2022-09-01T08:23:29.531Z,15.10
2022-09-01T08:24:29.512Z,15.10
2022-09-01T08:25:29.502Z,15.10
2022-09-01T08:26:29.502Z,14.45
2022-09-01T08:27:29.479Z,15.10
2022-09-01T08:28:29.709Z,15.74
2022-09-01T08:29:29.611Z,17.03
2022-09-01T08:30:29.457Z,18.32
2022-09-01T08:31:30.994Z,13.49
2022-09-01T08:32:29.405Z,15.10
2022-09-01T08:33:29.402Z,15.42
2022-09-01T08:34:29.387Z,17.03
2022-09-01T08:35:29.366Z,16.71
2022-09-01T08:36:29.359Z,14.78
2022-09-01T08:37:29.343Z,15.42
2022-09-01T08:38:30.287Z,15.10
2022-09-01T08:39:29.317Z,13.81
2022-09-01T08:40:29.350Z,13.49
2022-09-01T08:41:35.386Z,16.06
2022-09-01T08:42:32.965Z,15.74
2022-09-01T08:43:29.268Z,14.13
2022-09-01T08:44:29.263Z,17.03
2022-09-01T08:45:29.236Z,15.74
2022-09-01T08:46:29.305Z,15.42
2022-09-01T08:47:39.499Z,15.10
2022-09-01T08:49:23.207Z,14.13
2022-09-01T08:49:30.709Z,15.10
2022-09-01T08:50:29.179Z,15.10
2022-09-01T08:51:29.151Z,15.74
2022-09-01T08:52:29.148Z,14.13
2022-09-01T08:53:32.455Z,15.42
2022-09-01T08:54:29.620Z,16.06
2022-09-01T08:55:29.102Z,14.13
2022-09-01T08:56:29.083Z,15.74
2022-09-01T08:57:29.073Z,16.06
2022-09-01T08:58:29.063Z,13.81
2022-09-01T08:59:29.041Z,14.45
2022-09-01T09:00:29.034Z,14.13
2022-09-01T09:01:30.512Z,15.42
2022-09-01T09:02:29.080Z,15.10
2022-09-01T09:03:40.415Z,18.32
2022-09-01T09:04:29.986Z,16.06
2022-09-01T09:05:28.964Z,15.74
2022-09-01T09:06:28.957Z,15.74
2022-09-01T09:07:28.948Z,16.06
2022-09-01T09:08:32.957Z,16.06
2022-09-01T09:09:33.479Z,17.35
2022-09-01T09:10:29.907Z,16.39
2022-09-01T09:11:30.018Z,18.00
2022-09-01T09:12:28.871Z,14.45
2022-09-01T09:13:28.860Z,16.71
2022-09-01T09:14:28.849Z,16.06
2022-09-01T09:15:28.906Z,15.74
2022-09-01T09:16:28.864Z,14.45
2022-09-01T09:17:29.758Z,16.71
2022-09-01T09:18:38.951Z,18.32
2022-09-01T09:19:29.782Z,16.71
2022-09-01T09:20:29.731Z,18.64
2022-09-01T09:21:30.098Z,15.42
2022-09-01T09:22:29.146Z,14.78
2022-09-01T09:23:28.748Z,17.35
2022-09-01T09:24:39.273Z,18.32
2022-09-01T09:25:29.772Z,17.03
2022-09-01T09:26:42.267Z,17.03
2022-09-01T09:27:29.683Z,14.13
2022-09-01T09:28:28.668Z,16.06
2022-09-01T09:29:29.935Z,16.71
2022-09-01T09:30:28.645Z,17.03
2022-09-01T09:31:28.862Z,17.03
2022-09-01T09:32:50.485Z,15.10
2022-09-01T09:33:49.758Z,15.74
2022-09-01T09:34:29.616Z,16.71
2022-09-01T09:35:28.569Z,17.03
2022-09-01T09:36:28.568Z,14.78
2022-09-01T09:37:28.547Z,16.06
2022-09-01T09:38:28.600Z,16.06
2022-09-01T09:39:29.494Z,17.03
2022-09-01T09:40:28.546Z,16.39
2022-09-01T09:41:28.540Z,16.06
2022-09-01T09:42:33.564Z,13.49
2022-09-01T09:43:29.480Z,16.39
2022-09-01T09:44:28.460Z,16.71
2022-09-01T09:45:28.451Z,16.06
2022-09-01T09:46:28.459Z,16.71
2022-09-01T09:47:43.175Z,16.06
2022-09-01T09:48:29.403Z,14.45
2022-09-01T09:49:34.752Z,19.29
2022-09-01T09:50:29.383Z,16.06
2022-09-01T09:51:28.956Z,18.00
2022-09-01T09:52:28.347Z,18.64
2022-09-01T09:53:29.302Z,14.45
2022-09-01T09:54:28.335Z,16.06
2022-09-01T09:55:28.344Z,16.39
2022-09-01T09:56:28.321Z,16.06
2022-09-01T09:57:28.294Z,16.39
2022-09-01T09:58:28.275Z,15.74
2022-09-01T09:59:53.645Z,18.64
2022-09-01T10:00:29.287Z,16.06
2022-09-01T10:01:28.333Z,17.03
2022-09-01T10:02:28.286Z,16.06
2022-09-01T10:03:29.138Z,15.74
2022-09-01T10:04:28.243Z,15.42
2022-09-01T10:05:28.836Z,17.03
2022-09-01T10:06:28.171Z,16.71
2022-09-01T10:07:28.149Z,18.96
2022-09-01T10:08:28.440Z,18.32
2022-09-01T10:09:29.104Z,16.39
2022-09-01T10:10:28.132Z,16.71
2022-09-01T10:11:33.318Z,16.71
2022-09-01T10:12:29.090Z,17.03
2022-09-01T10:13:28.094Z,14.45
2022-09-01T10:14:49.830Z,17.03
2022-09-01T10:15:31.080Z,14.78
2022-09-01T10:16:28.187Z,18.32
2022-09-01T10:17:29.001Z,16.06
2022-09-01T10:18:29.525Z,16.06
2022-09-01T10:19:31.159Z,19.29
2022-09-01T10:20:29.012Z,17.35
2022-09-01T10:21:27.983Z,16.39
2022-09-01T10:22:28.283Z,16.39
2022-09-01T10:23:31.017Z,17.03
2022-09-01T10:24:30.946Z,18.64
2022-09-01T10:25:29.209Z,18.00
2022-09-01T10:26:28.890Z,17.03
2022-09-01T10:27:28.857Z,19.29
2022-09-01T10:28:27.916Z,17.35
2022-09-01T10:29:27.975Z,15.10
2022-09-01T10:30:28.949Z,17.68
2022-09-01T10:31:32.158Z,17.03
2022-09-01T10:32:36.843Z,15.42
2022-09-01T10:33:28.818Z,15.42
2022-09-01T10:34:27.809Z,17.35
2022-09-01T10:35:27.809Z,18.32
2022-09-01T10:36:27.789Z,17.35
2022-09-01T10:37:27.825Z,17.68
2022-09-01T10:38:27.751Z,17.68
2022-09-01T10:39:31.087Z,18.00
2022-09-01T10:40:31.009Z,19.29
2022-09-01T10:41:27.815Z,17.68
2022-09-01T10:42:28.327Z,17.68
2022-09-01T10:43:27.717Z,16.06
2022-09-01T10:44:31.357Z,17.35
2022-09-01T10:45:27.672Z,17.35
2022-09-01T10:46:38.526Z,17.03
2022-09-01T10:47:29.641Z,17.35
2022-09-01T10:48:32.114Z,15.74
2022-09-01T10:49:29.575Z,17.68
2022-09-01T10:50:29.408Z,17.35
2022-09-01T10:51:36.033Z,18.96
2022-09-01T10:52:28.774Z,16.06
2022-09-01T10:53:27.583Z,15.74
2022-09-01T10:54:27.556Z,17.68
2022-09-01T10:55:27.536Z,16.06
2022-09-01T10:56:35.561Z,17.35
2022-09-01T10:57:30.635Z,19.61
2022-09-01T10:59:33.635Z,16.06
2022-09-01T11:00:36.987Z,14.45
2022-09-01T11:01:47.928Z,16.71
2022-09-01T11:02:34.739Z,18.00
2022-09-01T11:03:30.114Z,18.32
2022-09-01T11:04:27.482Z,18.00
2022-09-01T11:05:33.243Z,17.03
2022-09-01T11:06:33.220Z,17.68
2022-09-01T11:07:50.283Z,18.00
2022-09-01T11:08:28.699Z,18.00
2022-09-01T11:09:27.361Z,18.32
2022-09-01T11:10:34.856Z,18.32
2022-09-01T11:11:28.323Z,20.25
2022-09-01T11:12:29.714Z,18.32
2022-09-01T11:13:27.316Z,18.32
2022-09-01T11:14:27.302Z,17.35
2022-09-01T11:15:27.312Z,18.32
2022-09-01T11:17:28.304Z,17.68
2022-09-01T11:18:27.497Z,18.32
2022-09-01T11:19:27.491Z,18.32
2022-09-01T11:20:27.216Z,17.68
2022-09-01T11:21:27.199Z,16.71
2022-09-01T11:22:27.178Z,16.06
2022-09-01T11:23:27.769Z,19.93
2022-09-01T11:24:27.353Z,18.64
2022-09-01T11:25:38.760Z,17.68
2022-09-01T11:26:28.130Z,17.35
2022-09-01T11:27:27.159Z,16.39
2022-09-01T11:28:27.100Z,18.00
2022-09-01T11:29:27.365Z,18.00
2022-09-01T11:30:27.090Z,18.32
2022-09-01T11:31:27.121Z,17.03
2022-09-01T11:32:27.053Z,18.32
2022-09-01T11:33:27.042Z,18.00
2022-09-01T11:34:27.064Z,18.00
2022-09-01T11:35:27.038Z,18.96
2022-09-01T11:36:26.996Z,15.74
2022-09-01T11:37:27.837Z,18.00
2022-09-01T11:38:26.972Z,17.35
2022-09-01T11:39:26.979Z,18.00
2022-09-01T11:40:29.656Z,16.71
2022-09-01T11:41:27.925Z,19.29
2022-09-01T11:42:26.927Z,18.00
2022-09-01T11:43:27.265Z,17.68
2022-09-01T11:44:26.893Z,17.03
2022-09-01T11:45:26.919Z,18.00
2022-09-01T11:46:26.877Z,16.71
2022-09-01T11:47:26.866Z,17.35
2022-09-01T11:48:26.853Z,17.68
2022-09-01T11:49:26.848Z,17.35
2022-09-01T11:50:26.838Z,18.96
2022-09-01T11:51:26.818Z,20.25
2022-09-01T11:52:26.849Z,18.64
2022-09-01T11:53:26.790Z,16.39
2022-09-01T11:54:26.764Z,15.74
2022-09-01T11:55:26.760Z,17.68
2022-09-01T11:56:26.872Z,17.35
2022-09-01T11:57:26.731Z,17.35
2022-09-01T11:58:26.711Z,18.00
2022-09-01T11:59:26.703Z,15.74
2022-09-01T12:00:26.701Z,18.32
2022-09-01T12:01:26.683Z,17.35
2022-09-01T12:02:26.788Z,15.10
2022-09-01T12:03:27.044Z,19.29
2022-09-01T12:04:26.634Z,15.74
2022-09-01T12:05:26.636Z,17.35
2022-09-01T12:06:26.636Z,17.03
2022-09-01T12:07:26.614Z,16.39
2022-09-01T12:08:26.586Z,17.35
2022-09-01T12:09:26.566Z,16.39
2022-09-01T12:10:26.565Z,15.74
2022-09-01T12:11:26.546Z,19.29
2022-09-01T12:12:26.797Z,17.35
2022-09-01T12:13:26.537Z,17.35
2022-09-01T12:14:26.527Z,18.64
2022-09-01T12:15:26.518Z,17.35
2022-09-01T12:16:26.503Z,18.00
2022-09-01T12:17:26.469Z,17.68
2022-09-01T12:18:26.480Z,15.42
2022-09-01T12:19:26.680Z,17.03
2022-09-01T12:20:29.129Z,17.68
2022-09-01T12:21:27.367Z,17.03
2022-09-01T12:22:26.401Z,16.71
2022-09-01T12:23:26.392Z,16.39
2022-09-01T12:24:26.372Z,17.03
2022-09-01T12:25:26.382Z,14.78
2022-09-01T12:26:26.343Z,16.71
2022-09-01T12:27:26.373Z,16.71
2022-09-01T12:28:27.264Z,17.68
2022-09-01T12:29:30.171Z,16.06
2022-09-01T12:30:27.306Z,17.35
2022-09-01T12:31:26.360Z,17.03
2022-09-01T12:32:26.269Z,16.71
2022-09-01T12:33:26.265Z,17.03
2022-09-01T12:34:26.247Z,16.06
2022-09-01T12:35:26.276Z,17.03
2022-09-01T12:36:26.215Z,16.39
2022-09-01T12:37:26.217Z,16.39
2022-09-01T12:38:26.301Z,16.71
2022-09-01T12:39:26.177Z,17.35
2022-09-01T12:40:26.226Z,16.71
2022-09-01T12:41:28.906Z,17.68
2022-09-01T12:42:26.152Z,17.03
2022-09-01T12:43:26.130Z,15.10
2022-09-01T12:44:26.120Z,17.68
2022-09-01T12:45:26.118Z,18.32
2022-09-01T12:46:26.892Z,14.78
2022-09-01T12:47:26.923Z,17.35
2022-09-01T12:48:26.063Z,17.68
2022-09-01T12:49:28.740Z,16.71
2022-09-01T12:50:26.043Z,17.03
2022-09-01T12:51:30.861Z,17.03
2022-09-01T12:52:27.005Z,19.61
2022-09-01T12:53:26.060Z,16.71
2022-09-01T12:54:25.986Z,16.06
2022-09-01T12:56:26.955Z,19.61
2022-09-01T12:57:25.948Z,15.74
2022-09-01T12:58:25.999Z,16.71
2022-09-01T12:59:36.372Z,16.71
2022-09-01T13:00:26.925Z,16.71
2022-09-01T13:01:25.999Z,16.71
2022-09-01T13:02:26.350Z,16.06
2022-09-01T13:03:25.875Z,13.49
2022-09-01T13:04:25.859Z,17.03
2022-09-01T13:05:30.588Z,18.96
2022-09-01T13:06:26.839Z,17.35
2022-09-01T13:07:25.820Z,16.39
2022-09-01T13:08:27.017Z,19.61
2022-09-01T13:09:25.812Z,17.03
2022-09-01T13:10:25.791Z,18.00
2022-09-01T13:11:26.066Z,15.42
2022-09-01T13:12:25.774Z,18.96
2022-09-01T13:13:25.744Z,17.35
2022-09-01T13:14:25.730Z,15.42
2022-09-01T13:15:25.724Z,16.06
2022-09-01T13:16:25.728Z,16.71
2022-09-01T13:17:25.704Z,17.03